Frankenmuth, Michigan
Current Conditions -  °F | °C
As of 5:35 AM on Sunday 21 Dec 2014 (Local Time) from KHYX Reporting Station
Overcast Overcast  
Wind Chill: 28°   Ceiling: 3100
Heat Index: 28°   Visibility: 7mi
Dew Point: 27°   Wind: 3mph
Humidity: 93%   Direction: 170°S
Pressure: 30.28"   Gusts: NA
Location:  43.33°N, 83.74°W
Report Text: KHYX 211035Z AUTO 17003KT 7SM BKN031 OVC038 M02/M03 A3028 RMK AO2
Loading
Personal Weather Stations






























Interactive Weather Map New forecast layout! Learn more

10-Day Weather Forecast

Advertisements
Track Severe Weather on mobile